• Join FlightAware (Why Join?)
  • Login
  • US Flag 
03:44PM EDT


 

Airport Tracker/Info


-or-


 

Live Flight TrackerFlight Track Log ✈ N525AL ✈ 17-Oct-2013 ✈ KMQY - KCAE

Flight Track Log - Related Links

Times and Time Zones

All times are in EDT time to prevent confusion due to time zone crossing. See the N525AL flight status page for this flight to view local times or setup timezone preferences in your user account.

Time Position Orientation Groundspeed Altitude Reporting Facility
EDT Latitude Longitude Course Direction KTS MPH feet Rate Location/Type
09:30AM 36.0167 -86.5167 58° Northeast 150 173 1,000  Level Nashville TRACON
09:31AM 36.0333 -86.4833 58° Northeast 197 227 2,600 2,580 Climbing Nashville TRACON
09:32AM 36.0333 -86.3833 90° East 279 321 6,000 2,700 Climbing Nashville TRACON
09:33AM 36.0000 -86.3167 122° Southeast 262 302 8,000 2,100 Climbing Nashville TRACON
09:34AM 35.9739 -86.2558 118° Southeast 281 323 9,500 2,160 Climbing Memphis Center
09:35AM 35.9336 -86.1681 120° Southeast 281 323 12,300 2,940 Climbing Memphis Center
09:36AM 35.9056 -86.0822 112° Southeast 276 318 15,400 2,880 Climbing Memphis Center
09:37AM 35.8758 -86.0044 115° Southeast 264 304 18,100 2,400 Climbing Memphis Center
09:38AM 35.8458 -85.9242 115° Southeast 258 297 20,300 1,980 Climbing Memphis Center
09:40AM 35.7694 -85.7253 115° Southeast 260 299 25,000 1,860 Climbing Atlanta Center
09:41AM 35.7350 -85.6350 115° Southeast 266 306 26,600 1,500 Climbing Atlanta Center
09:42AM 35.7008 -85.5397 114° Southeast 277 319 28,100 1,500 Climbing Atlanta Center
09:43AM 35.6664 -85.4472 115° Southeast 287 330 29,600 1,380 Climbing Atlanta Center
09:44AM 35.6300 -85.3519 115° Southeast 299 344 30,900 1,080 Climbing Atlanta Center
09:45AM 35.5892 -85.2467 115° Southeast 317 365 31,800 1,140 Climbing Atlanta Center
09:46AM 35.5528 -85.1467 114° Southeast 323 372 33,200 1,200 Climbing Atlanta Center
09:47AM 35.5139 -85.0414 114° Southeast 323 372 34,200 840 Climbing Atlanta Center
09:48AM 35.4731 -84.9364 116° Southeast 323 372 35,000 360 Climbing Atlanta Center
09:49AM 35.4239 -84.8111 116° Southeast 349 402 35,000  Level Atlanta Center
09:50AM 35.3806 -84.6908 114° Southeast 367 422 35,000  Level Atlanta Center
09:51AM 35.3311 -84.5683 116° Southeast 389 448 35,000  Level Atlanta Center
09:52AM 35.2836 -84.4408 115° Southeast 395 455 35,000  Level Atlanta Center
09:53AM 35.2319 -84.3108 116° Southeast 407 468 35,000  Level Atlanta Center
09:54AM 35.1819 -84.1811 115° Southeast 412 474 35,000  Level Atlanta Center
09:55AM 35.1319 -84.0489 115° Southeast 417 480 35,000  Level Atlanta Center
09:56AM 35.0778 -83.9194 117° Southeast 422 486 35,000 -780 Level Atlanta Center
09:57AM 35.0253 -83.7850 115° Southeast 422 486 33,500 -1,800 Descending Atlanta Center
09:58AM 34.9706 -83.6408 115° Southeast 435 501 31,500 -1,980 Descending Atlanta Center
09:59AM 34.9181 -83.5042 115° Southeast 443 510 29,600 -3,300 Descending Atlanta Center
10:00AM 34.8589 -83.3706 118° Southeast 443 510 25,000 -1,860 Descending Atlanta Center
10:01AM 34.8100 -83.2342 114° Southeast 443 510 25,900  Climbing Atlanta Center
10:02AM 34.7569 -83.1058 117° Southeast 436 502 25,000 -480 Descending Atlanta Center
10:03AM 34.7058 -82.9825 117° Southeast 415 478 25,000 -480 Level Atlanta Center
10:04AM 34.6589 -82.8619 115° Southeast 402 463 24,100 -540 Descending Atlanta Center
10:05AM 34.6078 -82.7467 118° Southeast 402 463 24,000 -60 Descending Atlanta Center
10:06AM 34.5606 -82.6289 116° Southeast 402 463 24,000 -60 Level Atlanta Center
10:07AM 34.5089 -82.4961 115° Southeast 397 457 23,900 -1,020 Descending Atlanta Center
10:08AM 34.4592 -82.3786 117° Southeast 397 457 22,000 -2,040 Descending Atlanta Center
10:09AM 34.4136 -82.2586 115° Southeast 397 457 19,900 -2,100 Descending Atlanta Center
10:10AM 34.3683 -82.1464 116° Southeast 391 450 17,800 -1,800 Descending Atlanta Center
10:11AM 34.3250 -82.0442 117° Southeast 372 428 16,400 -1,680 Descending Atlanta Center
10:13AM 34.2644 -81.8975 117° Southeast 349 402 13,700 -1,920 Descending Jacksonville Center
10:14AM 34.2239 -81.8000 117° Southeast 334 384 11,700 -1,380 Descending Jacksonville Center
10:15AM 34.1833 -81.7028 117° Southeast 329 379 11,000 -900 Descending Jacksonville Center
10:16AM 34.1450 -81.6078 116° Southeast 324 373 10,000 -1,380 Descending Jacksonville Center
10:17AM 34.1064 -81.5181 117° Southeast 313 360 8,300 -1,740 Descending Jacksonville Center
10:18AM 34.0803 -81.4283 109° East 294 338 6,600 -1,560 Descending Jacksonville Center
10:19AM 34.0794 -81.3431 91° East 279 321 5,200 -1,200 Descending Jacksonville Center
10:20AM 34.0717 -81.2303 95° East 274 315 4,300 -1,200 Descending Jacksonville Center
10:21AM 34.0664 -81.1478 94° East 269 310 2,900 -1,020 Descending Jacksonville Center
10:22AM 34.0547 -81.0678 100° East 269 310 2,300 -600 Descending Jacksonville Center